Time;durP1;ratioP1;P1;durP2;ratioP2;P2;SDS_P1;SDS_P2;PMS_P1;PMS_P2;Temp;Humidity;BMP_temperature;BMP_pressure;BME280_temperature;BME280_humidity;BME280_pressure;Samples;Min_cycle;Max_cycle;Signal;HPM_P1;HPM_P2
2021/10/20 00:00:17;;;;;;;7.25;4.20;;;15.60;92.30;;;;;;5013404;28;20477;-71
2021/10/20 00:02:45;;;;;;;6.13;3.85;;;15.60;92.60;;;;;;5013176;28;20105;-71
2021/10/20 00:05:11;;;;;;;5.55;3.45;;;15.50;92.50;;;;;;5014726;28;20026;-71
2021/10/20 00:07:37;;;;;;;4.75;3.28;;;15.50;92.60;;;;;;5011087;28;20655;-70
2021/10/20 00:10:04;;;;;;;4.55;3.50;;;15.50;92.60;;;;;;5014375;28;20025;-70
2021/10/20 00:12:29;;;;;;;4.88;3.90;;;15.50;92.50;;;;;;5013698;28;20094;-71
2021/10/20 00:14:55;;;;;;;4.22;3.28;;;15.50;92.60;;;;;;5013959;28;20041;-70
2021/10/20 00:17:21;;;;;;;4.85;3.85;;;15.50;92.50;;;;;;5011667;28;20041;-71
2021/10/20 00:19:48;;;;;;;5.05;3.83;;;15.60;92.50;;;;;;5015013;28;20045;-71
2021/10/20 00:22:15;;;;;;;6.68;4.25;;;15.50;92.60;;;;;;5011667;28;20049;-71
2021/10/20 00:24:40;;;;;;;6.15;4.22;;;15.50;92.60;;;;;;5014652;28;20595;-71
2021/10/20 00:27:06;;;;;;;6.30;4.38;;;15.60;92.60;;;;;;5010408;28;20029;-71
2021/10/20 00:29:32;;;;;;;6.97;4.60;;;15.50;92.60;;;;;;5012657;28;20029;-70
2021/10/20 00:31:57;;;;;;;9.52;4.50;;;15.50;92.70;;;;;;5012577;28;20413;-71
2021/10/20 00:34:23;;;;;;;7.30;4.75;;;15.50;92.90;;;;;;5013235;28;20040;-70
2021/10/20 00:36:49;;;;;;;8.43;4.90;;;15.50;92.70;;;;;;5011947;28;20041;-70
2021/10/20 00:39:14;;;;;;;8.73;4.97;;;15.50;92.80;;;;;;5012249;28;20086;-70
2021/10/20 00:41:40;;;;;;;6.65;4.95;;;15.50;92.80;;;;;;5012939;28;20044;-71
2021/10/20 00:44:06;;;;;;;8.32;5.25;;;15.50;92.80;;;;;;5014573;28;20033;-70
2021/10/20 00:46:31;;;;;;;7.78;5.05;;;15.50;92.80;;;;;;5011499;28;20034;-70
2021/10/20 00:48:58;;;;;;;8.20;5.57;;;15.50;92.80;;;;;;5014667;28;20036;-71
2021/10/20 00:51:27;;;;;;;9.60;6.10;;;15.50;92.90;;;;;;5014447;28;20038;-71
2021/10/20 00:54:00;;;;;;;7.32;4.97;;;15.50;92.90;;;;;;5012686;28;20049;-71
2021/10/20 00:56:26;;;;;;;9.10;5.95;;;15.50;92.70;;;;;;5011674;28;20041;-71
2021/10/20 00:58:52;;;;;;;11.40;6.90;;;15.50;92.70;;;;;;5010029;28;20803;-71
2021/10/20 01:01:18;;;;;;;9.85;6.53;;;15.50;92.80;;;;;;5010193;28;20033;-70
2021/10/20 01:03:48;;;;;;;10.95;6.97;;;15.40;92.60;;;;;;5011523;28;20532;-70
2021/10/20 01:06:13;;;;;;;10.32;6.55;;;15.40;93.00;;;;;;5014713;28;20036;-70
2021/10/20 01:08:39;;;;;;;7.88;6.53;;;15.40;93.00;;;;;;5011893;28;20034;-71
2021/10/20 01:11:06;;;;;;;9.02;6.60;;;15.20;93.20;;;;;;5012898;28;20038;-70
2021/10/20 01:13:32;;;;;;;11.65;6.82;;;15.30;93.30;;;;;;5012676;28;20115;-70
2021/10/20 01:15:59;;;;;;;9.15;7.07;;;15.30;93.00;;;;;;5011671;28;20037;-70
2021/10/20 01:18:26;;;;;;;9.30;6.80;;;15.30;93.00;;;;;;5013852;28;20167;-70
2021/10/20 01:20:56;;;;;;;12.05;7.35;;;15.30;92.90;;;;;;5010875;28;20096;-70
2021/10/20 01:23:22;;;;;;;10.70;6.75;;;15.40;92.90;;;;;;5012447;28;20049;-71
2021/10/20 01:25:48;;;;;;;10.50;6.18;;;15.40;92.90;;;;;;5010131;28;20030;-71
2021/10/20 01:28:14;;;;;;;11.52;6.95;;;15.40;92.80;;;;;;5012528;28;20029;-71
2021/10/20 01:30:40;;;;;;;10.60;7.30;;;15.40;92.80;;;;;;5009497;28;20033;-71
2021/10/20 01:33:06;;;;;;;11.43;7.05;;;15.40;92.70;;;;;;5010128;28;20108;-70
2021/10/20 01:35:32;;;;;;;11.38;6.97;;;15.40;92.80;;;;;;5011212;28;20049;-71
2021/10/20 01:37:59;;;;;;;8.88;6.50;;;15.30;92.70;;;;;;5011228;28;20080;-71
2021/10/20 01:40:24;;;;;;;9.82;6.40;;;15.30;92.90;;;;;;5011308;28;20038;-71
2021/10/20 01:42:50;;;;;;;9.65;6.80;;;15.20;92.80;;;;;;5011157;28;20029;-71
2021/10/20 01:45:17;;;;;;;13.52;6.63;;;15.30;92.90;;;;;;5010179;28;20036;-71
2021/10/20 01:47:43;;;;;;;10.80;5.95;;;15.30;92.80;;;;;;5007615;28;20597;-71
2021/10/20 01:50:11;;;;;;;9.25;6.22;;;15.30;92.70;;;;;;5011048;28;20584;-71
2021/10/20 01:52:37;;;;;;;10.45;7.07;;;15.30;92.70;;;;;;5010541;28;20084;-70
2021/10/20 01:55:05;;;;;;;7.80;6.07;;;15.30;92.60;;;;;;5010724;28;20041;-70
2021/10/20 01:57:31;;;;;;;9.90;6.10;;;15.30;92.50;;;;;;5011395;28;20055;-70
2021/10/20 01:59:57;;;;;;;11.65;6.85;;;15.30;92.60;;;;;;5009541;28;20034;-70
2021/10/20 02:02:23;;;;;;;10.70;5.90;;;15.30;92.50;;;;;;5010967;28;20115;-71
2021/10/20 02:04:49;;;;;;;9.73;6.40;;;15.30;92.50;;;;;;5011015;28;20033;-71
2021/10/20 02:07:15;;;;;;;9.32;6.88;;;15.30;92.50;;;;;;5009983;28;20752;-71
2021/10/20 02:09:41;;;;;;;8.73;5.88;;;15.30;92.60;;;;;;5009172;28;20051;-70
2021/10/20 02:12:07;;;;;;;8.43;6.03;;;15.20;92.50;;;;;;5011785;28;20037;-71
2021/10/20 02:14:33;;;;;;;10.90;6.68;;;15.20;92.50;;;;;;5011663;28;20134;-71
2021/10/20 02:16:59;;;;;;;9.60;6.68;;;15.30;92.40;;;;;;5010907;28;20115;-70
2021/10/20 02:19:27;;;;;;;10.40;6.70;;;15.30;92.40;;;;;;5012766;28;20112;-70
2021/10/20 02:21:54;;;;;;;11.50;6.80;;;15.20;92.40;;;;;;5010266;28;20099;-69
2021/10/20 02:24:20;;;;;;;10.15;6.63;;;15.20;92.50;;;;;;5010048;28;20033;-70
2021/10/20 02:26:45;;;;;;;9.65;6.28;;;15.20;92.50;;;;;;5009984;28;20041;-70
2021/10/20 02:29:11;;;;;;;11.35;6.40;;;15.20;92.40;;;;;;5012034;28;20042;-70
2021/10/20 02:31:37;;;;;;;8.50;5.82;;;15.10;92.50;;;;;;5012514;28;20091;-71
2021/10/20 02:34:03;;;;;;;7.85;6.10;;;15.10;92.80;;;;;;5009063;28;20032;-70
2021/10/20 02:36:28;;;;;;;10.02;6.55;;;15.00;92.50;;;;;;5009725;28;20740;-71
2021/10/20 02:38:54;;;;;;;8.85;6.88;;;15.10;92.50;;;;;;5010000;28;20029;-70
2021/10/20 02:41:20;;;;;;;7.35;5.95;;;15.00;92.50;;;;;;5008764;28;20041;-71
2021/10/20 02:43:45;;;;;;;8.20;6.30;;;15.10;92.40;;;;;;5011178;28;20037;-70
2021/10/20 02:46:11;;;;;;;10.45;6.93;;;15.10;92.40;;;;;;5009280;28;20230;-71
2021/10/20 02:48:36;;;;;;;7.78;6.20;;;15.10;92.40;;;;;;5007734;28;20088;-71
2021/10/20 02:51:03;;;;;;;10.90;6.05;;;15.10;92.40;;;;;;5011558;28;20033;-71
2021/10/20 02:53:28;;;;;;;9.82;6.18;;;15.00;92.40;;;;;;5009411;28;20044;-71
2021/10/20 02:55:54;;;;;;;11.00;6.55;;;14.90;92.50;;;;;;5008758;28;20033;-71
2021/10/20 02:58:20;;;;;;;8.40;5.80;;;14.90;92.60;;;;;;5006198;28;20061;-71
2021/10/20 03:00:46;;;;;;;8.55;5.63;;;15.00;92.50;;;;;;5009545;28;20044;-71
2021/10/20 03:03:12;;;;;;;7.65;5.65;;;14.90;92.60;;;;;;5012383;28;20038;-71
2021/10/20 03:05:37;;;;;;;8.95;6.22;;;14.90;92.50;;;;;;5014759;28;20044;-71
2021/10/20 03:08:03;;;;;;;8.27;6.13;;;14.90;92.60;;;;;;5011926;28;20870;-71
2021/10/20 03:10:29;;;;;;;8.20;6.00;;;14.90;92.50;;;;;;5013153;28;20521;-71
2021/10/20 03:12:55;;;;;;;8.20;6.53;;;14.90;92.60;;;;;;5015290;28;20560;-71
2021/10/20 03:15:20;;;;;;;9.73;6.25;;;14.90;92.40;;;;;;5014857;28;20109;-71
2021/10/20 03:17:46;;;;;;;9.63;5.82;;;15.00;92.20;;;;;;5015039;28;20031;-71
2021/10/20 03:20:12;;;;;;;7.93;5.40;;;14.90;92.30;;;;;;5013864;28;20045;-71
2021/10/20 03:22:42;;;;;;;7.78;5.50;;;14.90;92.20;;;;;;5014538;28;20033;-72
2021/10/20 03:25:10;;;;;;;7.18;5.72;;;14.90;92.20;;;;;;5016615;28;20033;-70
2021/10/20 03:27:41;;;;;;;10.75;5.90;;;14.90;92.30;;;;;;5012838;28;20539;-70
2021/10/20 03:30:07;;;;;;;8.75;5.05;;;15.00;92.10;;;;;;5011820;28;20037;-70
2021/10/20 03:32:33;;;;;;;6.80;4.80;;;15.00;92.00;;;;;;5012081;28;20041;-71
2021/10/20 03:34:59;;;;;;;7.25;5.22;;;15.00;91.80;;;;;;5017074;28;20083;-70
2021/10/20 03:37:24;;;;;;;7.65;5.93;;;15.10;91.80;;;;;;5016119;28;20095;-71
2021/10/20 03:39:50;;;;;;;8.98;5.63;;;15.00;91.80;;;;;;5016378;28;20045;-70
2021/10/20 03:42:16;;;;;;;8.32;5.53;;;15.00;91.80;;;;;;5013270;28;20044;-70
2021/10/20 03:44:41;;;;;;;9.02;5.72;;;15.00;91.80;;;;;;5015606;28;20099;-70
2021/10/20 03:47:07;;;;;;;7.13;5.10;;;15.10;91.80;;;;;;5012177;28;20040;-70
2021/10/20 03:49:33;;;;;;;8.30;4.68;;;15.10;91.60;;;;;;5015369;28;20163;-70
2021/10/20 03:51:58;;;;;;;7.88;5.00;;;15.10;91.40;;;;;;5012259;28;20026;-70
2021/10/20 03:54:24;;;;;;;8.30;5.10;;;15.10;91.40;;;;;;5014330;28;20041;-70
2021/10/20 03:56:49;;;;;;;6.70;5.57;;;15.10;91.40;;;;;;5014567;28;20045;-71
2021/10/20 03:59:15;;;;;;;6.95;5.13;;;15.10;91.30;;;;;;5016390;28;20037;-70
2021/10/20 04:01:41;;;;;;;9.90;4.57;;;15.20;91.20;;;;;;5015678;28;20041;-71
2021/10/20 04:04:06;;;;;;;6.03;4.25;;;15.20;91.10;;;;;;5012585;28;20654;-70
2021/10/20 04:06:32;;;;;;;7.32;4.47;;;15.20;91.10;;;;;;5015851;28;20033;-70
2021/10/20 04:08:57;;;;;;;6.15;4.40;;;15.30;90.90;;;;;;5015407;28;20040;-71
2021/10/20 04:11:23;;;;;;;7.72;4.55;;;15.30;90.70;;;;;;4995904;28;20067;-71
2021/10/20 04:13:49;;;;;;;5.38;4.53;;;15.30;90.90;;;;;;5012332;28;20041;-70
2021/10/20 04:16:14;;;;;;;5.95;4.45;;;15.30;90.50;;;;;;5015128;28;20044;-71
2021/10/20 04:18:40;;;;;;;7.13;4.88;;;15.30;90.40;;;;;;5014405;28;20033;-71
2021/10/20 04:21:05;;;;;;;6.60;5.07;;;15.30;90.40;;;;;;5015848;28;20042;-70
2021/10/20 04:23:31;;;;;;;4.95;4.00;;;15.30;90.30;;;;;;5009330;28;20084;-71
2021/10/20 04:25:57;;;;;;;6.28;4.22;;;15.30;90.20;;;;;;5009783;28;20059;-71
2021/10/20 04:28:22;;;;;;;6.20;4.65;;;15.30;90.20;;;;;;5011125;28;20081;-70
2021/10/20 04:30:48;;;;;;;6.35;4.65;;;15.30;90.10;;;;;;5013722;28;20033;-70
2021/10/20 04:33:13;;;;;;;5.13;3.72;;;15.30;90.10;;;;;;5013923;28;20510;-70
2021/10/20 04:35:39;;;;;;;6.07;4.05;;;15.30;90.10;;;;;;5010879;28;20038;-70
2021/10/20 04:38:05;;;;;;;5.13;4.00;;;15.20;90.10;;;;;;5012939;28;20033;-70
2021/10/20 04:40:30;;;;;;;6.22;3.90;;;15.30;90.10;;;;;;5012790;28;20088;-71
2021/10/20 04:42:57;;;;;;;5.93;4.40;;;15.30;89.80;;;;;;5030622;28;20040;-71
2021/10/20 04:45:22;;;;;;;7.25;3.95;;;15.30;89.60;;;;;;5030096;28;20037;-71
2021/10/20 04:47:48;;;;;;;7.22;4.35;;;15.30;89.50;;;;;;5021337;28;20558;-71
2021/10/20 04:50:14;;;;;;;7.78;4.60;;;15.20;89.80;;;;;;5027613;28;20029;-71
2021/10/20 04:52:40;;;;;;;4.70;3.83;;;15.20;89.50;;;;;;5017460;28;20065;-71
2021/10/20 04:55:07;;;;;;;5.00;3.85;;;15.20;89.20;;;;;;5023948;28;20043;-71
2021/10/20 04:57:33;;;;;;;6.10;4.00;;;15.20;89.20;;;;;;5016759;28;20072;-71
2021/10/20 04:59:59;;;;;;;8.50;3.90;;;15.20;88.90;;;;;;5017951;28;20029;-71
2021/10/20 05:02:24;;;;;;;4.80;3.95;;;15.20;88.80;;;;;;5019962;28;20488;-71
2021/10/20 05:04:50;;;;;;;5.57;3.65;;;15.20;88.80;;;;;;5013632;28;20045;-70
2021/10/20 05:07:16;;;;;;;6.13;3.65;;;15.10;89.00;;;;;;5017937;28;20456;-71
2021/10/20 05:09:41;;;;;;;5.25;3.67;;;15.10;89.10;;;;;;5019870;28;20029;-70
2021/10/20 05:12:07;;;;;;;5.53;3.65;;;15.10;88.90;;;;;;5015062;28;20029;-70
2021/10/20 05:14:33;;;;;;;5.85;3.85;;;15.20;88.80;;;;;;5018894;28;20091;-70
2021/10/20 05:16:59;;;;;;;4.72;3.13;;;15.20;88.20;;;;;;5017834;28;20600;-70
2021/10/20 05:19:24;;;;;;;6.60;3.67;;;15.20;88.50;;;;;;5018249;28;20044;-70
2021/10/20 05:21:50;;;;;;;5.82;3.80;;;15.20;87.60;;;;;;5018607;28;20042;-70
2021/10/20 05:24:16;;;;;;;5.05;4.00;;;15.20;87.80;;;;;;5014709;28;20725;-71
2021/10/20 05:26:41;;;;;;;7.13;4.28;;;15.20;87.90;;;;;;5016050;28;20037;-71
2021/10/20 05:29:07;;;;;;;5.63;3.53;;;15.20;87.40;;;;;;5017854;28;20029;-70
2021/10/20 05:31:33;;;;;;;8.07;3.60;;;15.10;87.70;;;;;;5009424;28;20161;-70
2021/10/20 05:33:59;;;;;;;10.35;3.55;;;15.20;87.40;;;;;;5015068;28;20037;-70
2021/10/20 05:36:25;;;;;;;4.72;3.67;;;15.20;87.60;;;;;;5011868;28;20046;-70
2021/10/20 05:38:50;;;;;;;4.68;3.47;;;15.10;87.60;;;;;;5018365;28;20079;-71
2021/10/20 05:41:16;;;;;;;4.43;3.25;;;15.10;87.10;;;;;;5011106;28;20034;-70
2021/10/20 05:43:42;;;;;;;5.68;3.30;;;15.10;87.40;;;;;;5016516;28;20126;-71
2021/10/20 05:46:09;;;;;;;4.55;3.53;;;15.10;86.90;;;;;;5020363;28;20477;-70
2021/10/20 05:48:34;;;;;;;6.30;4.10;;;15.10;87.40;;;;;;5020986;28;20045;-71
2021/10/20 05:51:00;;;;;;;6.82;3.60;;;15.00;86.70;;;;;;5017045;28;20033;-70
2021/10/20 05:53:26;;;;;;;4.55;3.22;;;15.00;86.90;;;;;;5017256;28;20033;-70
2021/10/20 05:55:51;;;;;;;5.25;3.65;;;15.00;87.20;;;;;;5022615;28;20521;-70
2021/10/20 05:58:17;;;;;;;3.63;2.95;;;15.10;86.50;;;;;;5020346;28;20466;-71
2021/10/20 06:00:42;;;;;;;6.18;3.40;;;15.10;86.40;;;;;;5014050;28;20037;-70
2021/10/20 06:03:08;;;;;;;4.45;2.90;;;15.20;86.60;;;;;;5017427;28;20033;-70
2021/10/20 06:05:36;;;;;;;5.03;2.63;;;15.20;85.60;;;;;;5016004;28;20167;-71
2021/10/20 06:08:02;;;;;;;5.13;3.40;;;15.20;85.90;;;;;;5005231;28;20036;-69
2021/10/20 06:10:28;;;;;;;4.35;3.55;;;15.30;85.60;;;;;;5010533;28;20025;-71
2021/10/20 06:12:54;;;;;;;4.65;3.38;;;15.30;85.20;;;;;;5018784;28;20037;-71
2021/10/20 06:15:22;;;;;;;6.20;3.22;;;15.30;85.00;;;;;;5017807;28;20033;-71
2021/10/20 06:17:48;;;;;;;4.68;2.95;;;15.30;85.00;;;;;;5016773;28;20375;-72
2021/10/20 06:20:15;;;;;;;4.10;2.70;;;15.40;85.10;;;;;;5020050;28;20021;-71
2021/10/20 06:22:42;;;;;;;4.93;3.15;;;15.30;84.40;;;;;;5014897;28;20034;-70
2021/10/20 06:25:12;;;;;;;4.75;2.92;;;15.40;83.40;;;;;;5008906;28;20037;-74
2021/10/20 06:27:39;;;;;;;5.65;2.90;;;15.40;83.70;;;;;;5009247;28;20025;-69
2021/10/20 06:30:05;;;;;;;3.38;2.78;;;15.50;83.30;;;;;;5008469;28;20573;-68
2021/10/20 06:32:31;;;;;;;4.32;2.88;;;15.40;83.40;;;;;;5018614;28;20106;-69
2021/10/20 06:34:58;;;;;;;4.20;3.08;;;15.40;83.40;;;;;;5010129;28;20459;-69
2021/10/20 06:37:23;;;;;;;4.35;3.00;;;15.40;83.90;;;;;;5014470;28;20037;-69
2021/10/20 06:39:49;;;;;;;5.00;2.88;;;15.40;83.40;;;;;;5024148;28;20044;-69
2021/10/20 06:42:15;;;;;;;3.70;2.85;;;15.40;83.10;;;;;;5013239;28;20156;-69
2021/10/20 06:44:41;;;;;;;4.72;3.42;;;15.40;83.10;;;;;;5015752;28;20481;-69
2021/10/20 06:47:06;;;;;;;5.60;3.50;;;15.40;83.40;;;;;;5015885;28;20026;-69
2021/10/20 06:49:32;;;;;;;5.18;2.85;;;15.50;83.20;;;;;;5019363;28;20100;-69
2021/10/20 06:51:58;;;;;;;3.65;2.60;;;15.50;82.80;;;;;;5009531;28;20026;-69
2021/10/20 06:54:33;;;;;;;5.63;2.90;;;15.50;83.10;;;;;;5010591;28;20260;-70
2021/10/20 06:56:59;;;;;;;4.03;2.85;;;15.50;81.90;;;;;;5009229;28;20478;-71
2021/10/20 06:59:24;;;;;;;4.85;2.85;;;15.50;82.30;;;;;;5013844;28;20049;-73
2021/10/20 07:01:50;;;;;;;4.15;2.88;;;15.50;82.20;;;;;;5015522;28;20106;-73
2021/10/20 07:04:16;;;;;;;3.08;2.58;;;15.50;82.50;;;;;;5002463;28;20038;-72
2021/10/20 07:06:50;;;;;;;4.85;3.10;;;15.60;81.70;;;;;;5019436;28;20086;-72
2021/10/20 07:09:22;;;;;;;3.97;2.92;;;15.60;81.60;;;;;;5004894;28;20077;-72
2021/10/20 07:11:49;;;;;;;5.95;2.90;;;15.60;81.50;;;;;;5005371;28;20033;-78
2021/10/20 07:14:14;;;;;;;6.40;2.60;;;15.60;81.50;;;;;;5012404;28;20030;-76
2021/10/20 07:16:41;;;;;;;5.15;2.65;;;15.60;81.90;;;;;;5006320;28;20040;-78
2021/10/20 07:19:07;;;;;;;5.38;2.80;;;15.60;81.40;;;;;;5001523;28;20113;-79
2021/10/20 07:21:38;;;;;;;5.82;2.88;;;15.70;80.80;;;;;;5002877;28;20146;-79
2021/10/20 07:24:04;;;;;;;4.47;2.67;;;15.70;80.80;;;;;;5011906;28;20037;-79
2021/10/20 07:26:31;;;;;;;4.43;2.58;;;15.80;80.50;;;;;;5022877;28;20044;-78
2021/10/20 07:28:57;;;;;;;4.05;2.60;;;15.90;79.40;;;;;;5014998;28;20045;-77
2021/10/20 07:31:29;;;;;;;7.55;2.97;;;16.00;79.70;;;;;;5022862;28;20653;-73
2021/10/20 07:33:58;;;;;;;5.03;2.40;;;16.10;79.50;;;;;;5011241;28;20128;-74
2021/10/20 07:36:24;;;;;;;3.38;2.55;;;16.20;78.00;;;;;;5016975;28;20033;-71
2021/10/20 07:38:50;;;;;;;3.55;2.65;;;16.40;77.90;;;;;;5016944;28;20041;-72
2021/10/20 07:41:16;;;;;;;3.28;2.47;;;16.50;77.50;;;;;;4995343;28;20044;-72
2021/10/20 07:43:42;;;;;;;5.90;2.65;;;16.60;76.80;;;;;;5018355;28;20029;-73
2021/10/20 07:46:08;;;;;;;3.35;2.40;;;16.70;74.90;;;;;;5024835;28;20133;-73
2021/10/20 07:48:33;;;;;;;2.92;2.28;;;16.80;75.10;;;;;;5013849;28;20038;-73
2021/10/20 07:50:59;;;;;;;2.63;2.38;;;16.80;75.40;;;;;;5011543;28;20079;-73
2021/10/20 07:53:25;;;;;;;4.22;2.72;;;16.90;75.40;;;;;;5019141;28;20072;-71
2021/10/20 07:55:51;;;;;;;2.50;2.30;;;17.00;74.10;;;;;;5011105;28;20029;-72
2021/10/20 07:58:16;;;;;;;3.22;2.28;;;17.20;74.50;;;;;;5013841;28;20064;-72
2021/10/20 08:00:42;;;;;;;4.60;2.10;;;17.30;73.90;;;;;;5008610;28;20492;-72
2021/10/20 08:03:08;;;;;;;3.50;2.17;;;17.30;72.70;;;;;;5009998;28;20123;-71
2021/10/20 08:05:33;;;;;;;5.45;2.25;;;17.40;73.10;;;;;;5012778;28;20043;-71
2021/10/20 08:07:59;;;;;;;3.47;2.55;;;17.30;73.20;;;;;;5008832;28;20038;-74
2021/10/20 08:10:27;;;;;;;6.13;3.40;;;17.40;73.00;;;;;;5014244;28;20069;-71
2021/10/20 08:12:55;;;;;;;4.07;2.72;;;17.40;72.70;;;;;;5017706;28;20033;-71
2021/10/20 08:15:22;;;;;;;7.20;4.03;;;17.30;73.10;;;;;;5013828;28;20497;-71
2021/10/20 08:17:47;;;;;;;6.68;3.30;;;17.50;72.20;;;;;;5019228;28;20041;-72
2021/10/20 08:20:19;;;;;;;9.38;3.40;;;17.70;71.90;;;;;;5016203;28;20030;-73
2021/10/20 08:22:46;;;;;;;5.65;3.53;;;17.80;72.00;;;;;;5011015;28;20037;-74
2021/10/20 08:25:13;;;;;;;5.53;3.50;;;17.90;70.70;;;;;;5014441;28;20045;-73
2021/10/20 08:27:38;;;;;;;4.68;2.83;;;18.00;70.20;;;;;;5023619;28;20037;-72
2021/10/20 08:30:06;;;;;;;4.32;2.80;;;18.20;70.20;;;;;;5022303;28;20448;-72
2021/10/20 08:32:32;;;;;;;4.78;3.03;;;18.30;68.60;;;;;;5021289;28;20826;-76
2021/10/20 08:34:58;;;;;;;3.30;2.38;;;18.40;68.40;;;;;;5015562;28;20034;-75
2021/10/20 08:37:25;;;;;;;3.60;2.25;;;18.40;68.60;;;;;;5015014;28;20037;-74
2021/10/20 08:39:51;;;;;;;2.40;2.20;;;18.40;68.30;;;;;;5015094;28;20033;-73
2021/10/20 08:42:17;;;;;;;3.50;2.75;;;18.20;68.20;;;;;;5012424;28;20049;-70
2021/10/20 08:44:43;;;;;;;3.17;2.20;;;18.10;68.60;;;;;;5014600;28;20068;-70
2021/10/20 08:47:11;;;;;;;4.82;2.40;;;18.00;69.10;;;;;;5023407;28;20072;-71
2021/10/20 08:49:40;;;;;;;3.53;2.28;;;18.00;68.50;;;;;;5024475;28;20036;-72
2021/10/20 08:52:06;;;;;;;3.15;2.30;;;17.90;69.30;;;;;;5020481;28;20025;-71
2021/10/20 08:54:32;;;;;;;6.18;2.47;;;18.00;68.70;;;;;;5013981;28;20040;-71
2021/10/20 08:56:59;;;;;;;3.85;2.10;;;18.10;69.30;;;;;;5008264;28;20038;-68
2021/10/20 08:59:24;;;;;;;3.70;2.03;;;18.00;68.00;;;;;;5014964;28;20137;-70
2021/10/20 09:01:50;;;;;;;3.30;2.42;;;18.00;68.40;;;;;;5012288;28;20129;-70
2021/10/20 09:04:20;;;;;;;3.33;2.17;;;17.80;69.20;;;;;;5013139;28;20516;-70
2021/10/20 09:06:46;;;;;;;7.35;2.30;;;17.80;69.20;;;;;;5016308;28;20044;-70
2021/10/20 09:09:14;;;;;;;5.32;2.20;;;17.80;68.40;;;;;;5018200;28;20138;-70
2021/10/20 09:11:40;;;;;;;3.08;1.98;;;17.80;69.40;;;;;;5018501;28;20453;-70
2021/10/20 09:14:11;;;;;;;2.35;2.08;;;17.80;68.70;;;;;;5011067;28;20041;-69
2021/10/20 09:16:39;;;;;;;4.97;2.25;;;17.80;69.00;;;;;;5010362;28;20030;-73
2021/10/20 09:19:17;;;;;;;4.00;2.40;;;17.90;69.30;;;;;;5018438;28;20030;-69
2021/10/20 09:21:51;;;;;;;2.95;2.40;;;17.90;69.30;;;;;;5013539;28;20141;-70
2021/10/20 09:24:16;;;;;;;3.08;2.40;;;17.90;68.20;;;;;;5007838;28;20037;-71
2021/10/20 09:26:42;;;;;;;2.50;2.17;;;17.80;69.60;;;;;;5014153;28;20046;-71
2021/10/20 09:29:19;;;;;;;6.10;2.60;;;17.80;69.30;;;;;;5015215;28;20072;-71
2021/10/20 09:31:45;;;;;;;3.25;1.92;;;17.80;68.80;;;;;;5015353;28;20033;-73
2021/10/20 09:34:11;;;;;;;2.78;2.03;;;17.80;68.40;;;;;;5016889;28;20386;-71
2021/10/20 09:36:38;;;;;;;2.88;2.15;;;17.80;68.70;;;;;;5025622;28;20026;-71
2021/10/20 09:39:04;;;;;;;2.72;1.77;;;17.80;69.40;;;;;;5014722;28;20040;-71
2021/10/20 09:41:29;;;;;;;3.28;2.40;;;17.80;69.60;;;;;;5006714;28;20034;-70
2021/10/20 09:43:56;;;;;;;3.80;2.60;;;17.60;70.20;;;;;;5009639;28;20025;-70
2021/10/20 09:46:37;;;;;;;2.97;2.33;;;17.40;70.60;;;;;;5007928;28;20038;-70
2021/10/20 09:49:19;;;;;;;5.20;2.60;;;17.40;71.40;;;;;;5010099;28;20838;-70
2021/10/20 09:51:46;;;;;;;3.50;2.28;;;17.40;71.90;;;;;;5011781;28;20117;-70
2021/10/20 09:54:22;;;;;;;2.42;2.20;;;17.30;74.80;;;;;;5012682;28;20734;-70
2021/10/20 09:56:59;;;;;;;5.55;2.65;;;17.20;76.40;;;;;;5009566;28;20053;-68
2021/10/20 09:59:26;;;;;;;5.70;3.38;;;17.20;75.60;;;;;;5019820;28;20034;-72
2021/10/20 10:01:52;;;;;;;5.93;3.35;;;17.10;77.10;;;;;;5019666;28;20787;-75
2021/10/20 10:04:18;;;;;;;5.45;2.45;;;16.90;77.00;;;;;;5011399;28;20037;-68
2021/10/20 10:06:46;;;;;;;6.13;2.80;;;17.00;77.10;;;;;;5019053;28;20175;-68
2021/10/20 10:09:13;;;;;;;3.45;2.65;;;16.90;77.70;;;;;;5021958;28;20541;-68
2021/10/20 10:12:11;;;;;;;6.07;3.33;;;16.90;77.70;;;;;;5009457;28;20052;-68
2021/10/20 10:14:51;;;;;;;3.50;2.42;;;16.90;78.50;;;;;;5023428;28;20041;-67
2021/10/20 10:17:19;;;;;;;4.75;2.65;;;16.90;77.80;;;;;;5014994;28;20048;-67
2021/10/20 10:19:45;;;;;;;4.65;2.60;;;16.80;77.70;;;;;;5011488;28;20036;-69
2021/10/20 10:22:23;;;;;;;4.03;2.13;;;16.70;78.20;;;;;;5015491;28;20048;-71
2021/10/20 10:24:49;;;;;;;4.03;2.47;;;16.70;78.50;;;;;;5026808;28;20038;-73
2021/10/20 10:27:15;;;;;;;4.55;2.95;;;16.60;79.50;;;;;;5014194;28;20027;-69
2021/10/20 10:29:55;;;;;;;3.35;2.42;;;16.60;79.50;;;;;;5007701;28;20034;-69
2021/10/20 10:32:26;;;;;;;6.20;3.92;;;16.70;79.20;;;;;;5011749;28;20127;-69
2021/10/20 10:34:52;;;;;;;3.58;2.75;;;16.60;79.80;;;;;;5020899;28;20548;-68
2021/10/20 10:37:44;;;;;;;5.22;3.00;;;16.60;80.30;;;;;;5021980;28;20214;-68
2021/10/20 10:40:30;;;;;;;4.18;3.00;;;16.60;80.00;;;;;;5015787;28;20365;-68
2021/10/20 10:43:04;;;;;;;5.53;3.25;;;16.60;80.50;;;;;;5016475;28;20059;-69
2021/10/20 10:45:31;;;;;;;6.05;2.95;;;16.70;80.20;;;;;;5018405;28;20034;-72
2021/10/20 10:48:05;;;;;;;6.50;3.50;;;16.70;79.20;;;;;;5005210;28;20037;-72
2021/10/20 10:50:53;;;;;;;5.53;3.38;;;16.70;79.30;;;;;;5009246;28;20033;-74
2021/10/20 10:53:30;;;;;;;5.32;3.30;;;16.70;79.40;;;;;;5009583;28;20049;-75
2021/10/20 10:56:15;;;;;;;8.50;3.15;;;16.60;80.20;;;;;;5009838;28;20760;-75
2021/10/20 10:59:00;;;;;;;4.35;2.80;;;16.60;79.70;;;;;;5010172;28;20077;-73
2021/10/20 11:01:38;;;;;;;4.85;3.25;;;16.70;79.40;;;;;;5018833;28;20125;-75
2021/10/20 11:04:25;;;;;;;5.60;2.88;;;16.70;79.10;;;;;;5006694;28;20050;-75
2021/10/20 11:06:53;;;;;;;5.38;3.08;;;16.80;79.40;;;;;;5025670;28;20774;-74
2021/10/20 11:09:22;;;;;;;5.68;2.97;;;16.90;79.00;;;;;;5011793;28;20072;-73
2021/10/20 11:11:49;;;;;;;5.05;3.35;;;16.90;78.90;;;;;;5015880;28;20037;-73
2021/10/20 11:14:16;;;;;;;4.10;3.22;;;17.00;78.80;;;;;;5016261;28;20017;-70
2021/10/20 11:16:54;;;;;;;4.80;3.20;;;17.10;78.90;;;;;;5009797;28;20037;-71
2021/10/20 11:19:21;;;;;;;5.68;3.17;;;17.20;78.40;;;;;;5006506;28;20167;-73
2021/10/20 11:21:47;;;;;;;5.32;3.45;;;17.20;78.70;;;;;;5013915;28;20113;-73
2021/10/20 11:24:14;;;;;;;5.55;3.08;;;17.20;78.60;;;;;;5015418;28;20041;-74
2021/10/20 11:26:40;;;;;;;4.55;3.00;;;17.20;78.30;;;;;;5017403;28;21003;-74
2021/10/20 11:29:07;;;;;;;4.35;2.65;;;17.30;78.20;;;;;;5013238;28;20033;-74
2021/10/20 11:31:36;;;;;;;4.75;2.60;;;17.40;77.90;;;;;;5012428;28;20191;-73
2021/10/20 11:34:21;;;;;;;3.88;2.65;;;17.50;77.10;;;;;;5013144;28;20068;-75
2021/10/20 11:36:47;;;;;;;6.47;3.00;;;17.60;77.10;;;;;;5007543;28;20029;-74
2021/10/20 11:39:14;;;;;;;3.25;2.55;;;17.60;76.70;;;;;;5014925;28;20042;-74
2021/10/20 11:41:57;;;;;;;4.25;2.85;;;17.60;76.70;;;;;;5027099;28;20398;-72
2021/10/20 11:44:26;;;;;;;4.40;2.72;;;17.40;77.70;;;;;;5024309;28;20032;-72
2021/10/20 11:47:00;;;;;;;6.65;2.42;;;17.30;78.00;;;;;;5018707;28;20053;-71
2021/10/20 11:49:27;;;;;;;3.13;2.63;;;17.40;77.70;;;;;;5019725;28;20033;-72
2021/10/20 11:51:53;;;;;;;5.13;2.70;;;17.50;77.00;;;;;;5009227;28;20099;-73
2021/10/20 11:54:26;;;;;;;4.53;2.83;;;17.60;76.50;;;;;;5026834;28;20040;-73
2021/10/20 11:56:57;;;;;;;6.50;2.63;;;17.60;75.90;;;;;;5026387;28;20033;-72
2021/10/20 11:59:24;;;;;;;4.88;2.63;;;17.60;76.40;;;;;;5024672;28;20187;-74
2021/10/20 12:01:51;;;;;;;3.60;2.75;;;17.60;75.80;;;;;;5017891;28;20068;-75
2021/10/20 12:04:18;;;;;;;6.80;4.20;;;17.80;75.90;;;;;;5010152;28;20805;-74
2021/10/20 12:06:48;;;;;;;5.72;3.10;;;17.90;74.70;;;;;;5008237;28;20064;-74
2021/10/20 12:09:14;;;;;;;4.00;2.55;;;17.90;74.50;;;;;;5014504;28;20060;-77
2021/10/20 12:11:41;;;;;;;5.47;2.83;;;18.00;74.40;;;;;;5010788;28;20030;-73
2021/10/20 12:14:09;;;;;;;4.28;2.70;;;18.20;73.50;;;;;;5019566;28;20716;-75
2021/10/20 12:16:38;;;;;;;2.30;2.10;;;18.20;73.00;;;;;;5012802;28;20038;-75
2021/10/20 12:19:08;;;;;;;11.27;2.80;;;18.30;73.80;;;;;;5012874;28;20048;-74
2021/10/20 12:21:34;;;;;;;6.32;2.55;;;18.50;72.70;;;;;;5012254;28;20037;-75
2021/10/20 12:24:02;;;;;;;5.28;2.60;;;18.60;72.50;;;;;;5016210;28;20581;-75
2021/10/20 12:26:29;;;;;;;3.03;2.33;;;18.80;72.30;;;;;;5011048;28;20104;-76
2021/10/20 12:28:59;;;;;;;2.75;2.05;;;19.00;71.40;;;;;;5018790;28;20033;-73
2021/10/20 12:31:25;;;;;;;4.38;2.58;;;19.10;70.30;;;;;;5015592;28;20119;-74
2021/10/20 12:33:52;;;;;;;3.85;2.63;;;19.30;70.70;;;;;;5023241;28;20038;-74
2021/10/20 12:36:20;;;;;;;4.47;2.47;;;19.50;69.60;;;;;;5019996;28;20132;-79
2021/10/20 12:38:47;;;;;;;7.28;2.20;;;19.60;67.80;;;;;;5005813;28;20033;-78
2021/10/20 12:41:15;;;;;;;5.57;2.20;;;19.70;68.20;;;;;;5010126;28;20041;-78
2021/10/20 12:43:47;;;;;;;4.40;2.17;;;19.90;69.10;;;;;;5007238;28;20034;-77
2021/10/20 12:46:14;;;;;;;4.03;2.50;;;20.10;66.50;;;;;;5018339;28;20055;-78